Radar AviationWeather DUATS TFRs Wunderground Accuweather Weather.com

alt : Radar

TAFs

KDTW 181503Z 1815/1918 19005KT P6SM SKC
     TEMPO 1815/1816 BKN022
   FM191400 19009KT P6SM BKN200
KCLE 181451Z 1815/1918 32005KT P6SM OVC025
     TEMPO 1820/1822 SCT025
   FM182200 16004KT P6SM SCT025
KJXN 181140Z 1812/1912 00000KT P6SM BKN017
   FM181400 18006KT P6SM SCT025
   FM181800 20005KT P6SM SCT250
KFWA 181120Z 1812/1912 VRB03KT P6SM SKC
   FM181700 17006KT P6SM FEW250
KTOL 181120Z 1812/1912 VRB03KT P6SM SKC
KFDY 181120Z 1812/1912 VRB03KT P6SM SKC
   FM182100 18005KT P6SM SKC

METARs

KDUH 181556Z AUTO 11004KT 10SM CLR 00/M03 A3028 RMK AO2 T00001035
KJXN 181556Z 10006KT 10SM CLR M01/M05 A3025 RMK AO2 SLP257 T10111050
KFWA 181554Z 15004KT 10SM BKN270 01/M03 A3028 RMK AO2 SLP261 T00061028
KDTW 181553Z 00000KT 10SM SCT025 M02/M07 A3028 RMK AO2 SLP263 T10171072
KFDY 181553Z AUTO 10006KT 10SM CLR 00/M04 A3026 RMK AO2 SLP253 T00001039
KTDZ 181553Z AUTO 10005KT 10SM CLR 01/M04 A3029 RMK AO2 SLP262 T00061039
KTOL 181552Z VRB03KT 10SM CLR 01/M05 A3028 RMK AO2 SLP262 T00061050
KCLE 181551Z 00000KT 10SM OVC028 02/M05 A3029 RMK AO2 SLP264 T00171050

alt : Satellite

alt : TFRs